Portada
METAR-TAF:

METAR-TAF

Aeroports :

Xi'an, Xina

latitud: 34-26N, longitud: 108-45E, altitud: 479 m

Observació

L'informe es va fer fa 16 minuts, a les 04:00 UTC
Vent 10 kt del Est/Nord-Est, variant entre Nord/Nord-Est i Est
Temperatura 15°C
Humitat 20%
Pressió 1028 hPa
Visibilitat 10 km o més
sense núvols per sota de 1500 mi sense presència de cumulonimbus.

METAR: ZLXY 230400Z 06005MPS 030V100 CAVOK 15/M08 Q1028 NOSIG

Hora: 12:16 (04:16 UTC)

Pronòstic

L'informe es va fer fa 9 hores i 9 minuts, a les 19:07 UTC
Pronòstic vàlid del 23 a les 00 UTC al 23 a les 24 UTC
Vent 6 kt del Est/Nord-Est
Visibilitat: 3000 m
calitja

TAF: ZLXY 221907Z 2300/2324 06003MPS 3000 HZ NSC TX17/2307Z TN03/2322Z

Observacions i pronòstics meteorològics de més de 4000 aeroports (METAR i TAF).

Les estacions disponibles són els punts grocs i vermells al mapa.

Posi el ratolí al punt desitjat per veure el nom de l'estació.

Feu clic per veure les observacions i els pronòstics meteorològics.

Per canviar el mapa: feu clic els botons verds amb una creu de color negre per apropar; al botó verd amb un guió per allunyar la imatge; o en les fletxes verdes per a mapes adjacents.


METAR-TAF: